Time;durP1;ratioP1;P1;durP2;ratioP2;P2;SDS_P1;SDS_P2;PMS_P1;PMS_P2;Temp;Humidity;BMP_temperature;BMP_pressure;BME280_temperature;BME280_humidity;BME280_pressure;Samples;Min_cycle;Max_cycle;Signal;HPM_P1;HPM_P2
2021/07/03 00:03:58;;;;;;;;;;;;;;;;;;;;;
2021/07/03 00:08:32;;;;;;;;;;;;;;;;;;;;;
2021/07/03 00:11:28;;;;;;;;;;;;;;;;;;;;;
2021/07/03 00:15:19;;;;;;;;;;;;;;;;;;;;;
2021/07/03 00:18:30;;;;;;;17.08;12.15;;;13.00;99.90;;;;;;5929613;24;20025;-94
2021/07/03 00:21:38;;;;;;;16.92;12.45;;;12.90;99.90;;;;;;6005376;23;20080;-93
2021/07/03 00:42:09;;;;;;;15.95;11.80;;;12.30;99.90;;;;;;6051781;23;20304;-92
2021/07/03 01:44:42;;;;;;;;;;;;;;;;;;;;;
2021/07/03 02:52:49;;;;;;;;;;;;;;;;;;;;;
2021/07/03 02:57:15;;;;;;;;;;;;;;;;;;;;;
2021/07/03 03:19:56;;;;;;;22.10;15.65;;;11.20;99.90;;;;;;6188764;23;20016;-92
2021/07/03 03:35:38;;;;;;;24.25;17.38;;;10.90;99.90;;;;;;6016069;23;20015;-93
2021/07/03 03:39:39;;;;;;;24.88;17.10;;;11.00;99.90;;;;;;6102846;23;20058;-92
2021/07/03 05:05:19;;;;;;;16.80;12.65;;;12.80;99.90;;;;;;6223942;22;1449497;-91
2021/07/03 05:08:58;;;;;;;16.30;12.82;;;12.90;99.90;;;;;;6281330;22;20085;-91
2021/07/03 05:15:50;;;;;;;15.75;12.35;;;13.10;99.90;;;;;;6274271;22;20016;-90
2021/07/03 05:19:18;;;;;;;19.10;12.20;;;13.20;99.90;;;;;;6273219;22;20082;-90
2021/07/03 05:22:21;;;;;;;16.45;11.90;;;13.30;99.90;;;;;;6272290;22;20020;-86
2021/07/03 05:25:10;;;;;;;15.80;11.00;;;13.50;99.90;;;;;;6274145;22;20099;-85
2021/07/03 05:28:00;;;;;;;15.10;11.48;;;13.60;99.90;;;;;;6272357;22;20409;-86
2021/07/03 05:30:50;;;;;;;15.10;11.73;;;13.80;99.90;;;;;;6276741;22;20104;-87
2021/07/03 05:33:37;;;;;;;15.85;11.23;;;13.90;99.90;;;;;;6273583;22;20024;-86
2021/07/03 05:36:24;;;;;;;15.57;10.65;;;14.10;99.90;;;;;;6271433;22;20127;-86
2021/07/03 05:39:14;;;;;;;17.70;10.70;;;14.20;99.90;;;;;;6276015;22;20030;-87
2021/07/03 05:42:02;;;;;;;14.88;10.38;;;14.30;99.90;;;;;;6272441;22;20107;-86
2021/07/03 05:44:51;;;;;;;14.45;11.00;;;14.50;99.90;;;;;;6273531;22;20051;-87
2021/07/03 05:47:42;;;;;;;13.48;9.68;;;14.70;99.90;;;;;;6271747;22;20390;-87
2021/07/03 05:50:29;;;;;;;14.75;10.40;;;14.90;99.90;;;;;;6278063;22;20109;-87
2021/07/03 05:53:16;;;;;;;12.93;9.90;;;15.10;99.90;;;;;;6272333;22;20028;-86
2021/07/03 05:56:04;;;;;;;13.80;9.98;;;15.30;99.90;;;;;;6277213;22;20024;-87
2021/07/03 05:58:51;;;;;;;12.80;9.90;;;15.40;99.90;;;;;;6273462;22;20401;-85
2021/07/03 06:01:38;;;;;;;13.00;9.50;;;15.60;99.90;;;;;;6272723;22;20371;-86
2021/07/03 06:04:25;;;;;;;12.20;10.15;;;15.90;99.90;;;;;;6277159;22;20023;-85
2021/07/03 06:07:13;;;;;;;14.85;9.88;;;16.10;99.90;;;;;;6282127;22;20100;-87
2021/07/03 06:10:01;;;;;;;15.20;9.75;;;16.50;99.90;;;;;;6272702;22;20078;-88
2021/07/03 06:12:48;;;;;;;13.15;9.43;;;16.80;99.90;;;;;;6272442;22;20082;-88
2021/07/03 06:15:38;;;;;;;12.65;9.52;;;17.00;99.90;;;;;;6269115;22;20028;-89
2021/07/03 06:18:27;;;;;;;9.73;8.17;;;17.40;99.90;;;;;;6270140;22;20028;-88
2021/07/03 06:21:17;;;;;;;12.43;8.77;;;17.80;99.90;;;;;;6271394;22;20086;-86
2021/07/03 06:24:08;;;;;;;12.98;9.73;;;18.10;99.90;;;;;;6273976;22;20031;-87
2021/07/03 06:26:57;;;;;;;11.57;9.05;;;18.20;99.90;;;;;;6271990;22;20024;-87
2021/07/03 06:29:45;;;;;;;10.45;8.85;;;18.00;99.90;;;;;;6274931;22;20054;-87
2021/07/03 06:32:32;;;;;;;11.02;8.63;;;18.10;99.90;;;;;;6270211;22;20089;-87
2021/07/03 06:35:19;;;;;;;9.82;7.68;;;18.30;99.90;;;;;;6274002;22;20107;-86
2021/07/03 06:38:07;;;;;;;9.75;7.75;;;19.00;99.90;;;;;;6276616;22;20442;-89
2021/07/03 06:40:54;;;;;;;9.20;7.63;;;19.60;99.90;;;;;;6275612;22;20407;-89
2021/07/03 06:43:43;;;;;;;8.45;7.30;;;19.70;99.90;;;;;;6272384;22;20032;-87
2021/07/03 06:46:30;;;;;;;9.00;7.45;;;19.80;99.90;;;;;;6274380;22;20024;-91
2021/07/03 06:49:20;;;;;;;9.85;7.47;;;19.90;99.90;;;;;;6277712;22;20024;-93
2021/07/03 06:52:09;;;;;;;9.90;6.88;;;20.10;99.90;;;;;;6279836;22;20354;-93
2021/07/03 06:54:59;;;;;;;11.65;7.43;;;19.90;99.90;;;;;;6287615;22;20019;-93
2021/07/03 06:57:49;;;;;;;11.30;7.93;;;19.70;99.90;;;;;;6276531;22;20390;-93
2021/07/03 07:00:38;;;;;;;11.25;7.75;;;20.00;99.90;;;;;;6274932;22;20085;-93
2021/07/03 07:03:25;;;;;;;8.60;7.68;;;20.20;99.90;;;;;;6283273;22;20030;-94
2021/07/03 07:06:26;;;;;;;9.52;7.88;;;20.50;99.90;;;;;;6293942;22;20023;-91
2021/07/03 07:09:16;;;;;;;9.75;7.50;;;20.50;99.90;;;;;;6288310;22;20077;-92
2021/07/03 07:12:07;;;;;;;8.32;7.28;;;20.90;99.90;;;;;;6289527;22;20063;-93
2021/07/03 07:15:33;;;;;;;;;;;;;;;;;;;;;
2021/07/03 07:18:21;;;;;;;8.68;7.53;;;21.40;98.90;;;;;;6282788;22;20023;-92
2021/07/03 07:21:09;;;;;;;8.65;7.05;;;22.00;98.30;;;;;;6280333;22;20020;-93
2021/07/03 07:23:57;;;;;;;9.60;7.25;;;22.30;99.90;;;;;;6282165;22;20326;-94
2021/07/03 07:26:50;;;;;;;8.02;7.00;;;22.20;95.20;;;;;;6280648;22;20391;-93
2021/07/03 07:29:37;;;;;;;9.30;7.85;;;22.00;95.40;;;;;;6283538;22;20028;-93
2021/07/03 07:32:29;;;;;;;9.00;7.75;;;21.90;97.70;;;;;;6285946;22;20027;-95
2021/07/03 07:35:27;;;;;;;8.43;7.25;;;22.30;95.70;;;;;;6294056;22;20019;-93
2021/07/03 07:38:17;;;;;;;8.98;6.57;;;22.50;94.70;;;;;;6283128;22;20027;-93
2021/07/03 07:41:15;;;;;;;9.43;6.43;;;23.00;94.60;;;;;;6284256;22;20030;-94
2021/07/03 07:44:03;;;;;;;7.40;6.28;;;23.70;92.80;;;;;;6284027;22;20035;-91
2021/07/03 07:46:51;;;;;;;7.70;6.88;;;24.30;84.40;;;;;;6272746;22;20031;-91
2021/07/03 07:49:41;;;;;;;7.15;6.03;;;24.90;84.50;;;;;;6277648;22;20257;-91
2021/07/03 07:56:05;;;;;;;6.80;6.15;;;24.20;76.40;;;;;;6282606;22;20023;-92
2021/07/03 07:58:53;;;;;;;6.55;5.60;;;23.90;76.80;;;;;;6281183;22;20040;-91
2021/07/03 08:01:42;;;;;;;7.88;6.00;;;24.60;85.10;;;;;;6274099;22;20319;-91
2021/07/03 08:04:30;;;;;;;6.00;5.40;;;24.80;76.10;;;;;;6276389;22;20098;-91
2021/07/03 08:07:19;;;;;;;6.97;5.40;;;25.00;75.00;;;;;;6273014;22;20039;-91
2021/07/03 08:10:13;;;;;;;6.75;5.55;;;24.80;75.10;;;;;;6273860;22;20039;-92
2021/07/03 08:13:04;;;;;;;5.80;5.20;;;24.70;74.80;;;;;;6283890;22;20019;-93
2021/07/03 08:15:56;;;;;;;6.38;5.47;;;24.60;70.60;;;;;;6287049;22;20096;-93
2021/07/03 08:18:43;;;;;;;8.00;5.60;;;25.00;76.90;;;;;;6280476;22;20280;-90
2021/07/03 08:21:30;;;;;;;7.55;5.15;;;25.90;70.50;;;;;;6279159;22;20077;-91
2021/07/03 08:24:18;;;;;;;5.43;4.90;;;26.30;62.60;;;;;;6263627;22;20030;-91
2021/07/03 08:27:06;;;;;;;8.32;5.53;;;25.90;64.10;;;;;;6280382;22;20051;-94
2021/07/03 08:29:53;;;;;;;5.13;4.57;;;26.00;62.00;;;;;;6272290;22;20078;-91
2021/07/03 08:32:43;;;;;;;4.45;4.05;;;26.20;61.30;;;;;;6273321;22;20065;-92
2021/07/03 08:35:31;;;;;;;6.47;4.90;;;26.20;61.30;;;;;;6272714;22;20059;-92
2021/07/03 08:38:19;;;;;;;5.10;4.47;;;26.70;60.20;;;;;;6278918;22;20035;-92
2021/07/03 08:41:07;;;;;;;7.03;4.78;;;27.20;60.10;;;;;;6272402;22;20024;-90
2021/07/03 08:43:58;;;;;;;4.47;4.07;;;27.40;59.30;;;;;;6271544;22;20035;-90
2021/07/03 08:46:46;;;;;;;8.35;4.15;;;27.30;55.20;;;;;;6279862;22;20319;-93
2021/07/03 08:49:33;;;;;;;4.55;4.15;;;26.70;59.10;;;;;;6273237;22;20092;-92
2021/07/03 08:52:21;;;;;;;4.90;4.47;;;26.90;58.70;;;;;;6273987;22;20055;-89
2021/07/03 08:55:14;;;;;;;7.80;4.22;;;26.80;58.20;;;;;;6273447;22;20480;-91
2021/07/03 08:58:04;;;;;;;7.05;4.05;;;27.20;57.00;;;;;;6275056;22;20046;-90
2021/07/03 09:00:51;;;;;;;6.60;4.35;;;27.90;57.10;;;;;;6273073;22;20346;-91
2021/07/03 09:03:49;;;;;;;4.50;4.03;;;28.10;54.20;;;;;;6272501;22;20047;-90
2021/07/03 09:06:39;;;;;;;6.32;4.28;;;28.20;54.30;;;;;;6276033;22;20043;-92
2021/07/03 09:09:26;;;;;;;4.95;4.35;;;28.40;54.60;;;;;;6275708;22;20027;-91
2021/07/03 09:12:13;;;;;;;5.15;4.65;;;28.70;52.70;;;;;;6274802;22;20043;-93
2021/07/03 09:15:23;;;;;;;5.15;4.60;;;28.90;56.20;;;;;;6277202;22;20115;-93
2021/07/03 09:18:14;;;;;;;4.85;4.32;;;29.20;54.50;;;;;;6275337;22;20046;-94
2021/07/03 09:21:04;;;;;;;5.90;4.53;;;29.30;51.90;;;;;;6274231;22;20047;-91
2021/07/03 09:23:51;;;;;;;6.82;4.38;;;28.90;49.50;;;;;;6280137;22;20031;-90
2021/07/03 09:26:39;;;;;;;5.28;4.30;;;29.20;52.80;;;;;;6277011;22;20023;-92
2021/07/03 09:29:29;;;;;;;4.97;4.30;;;29.70;49.50;;;;;;6274256;22;20098;-91
2021/07/03 09:32:16;;;;;;;5.55;4.53;;;29.70;50.80;;;;;;6273963;22;20165;-91
2021/07/03 09:35:08;;;;;;;4.38;3.97;;;29.80;51.00;;;;;;6277121;22;20030;-92
2021/07/03 09:38:04;;;;;;;5.85;4.30;;;29.90;50.40;;;;;;6274293;22;20024;-91
2021/07/03 09:40:51;;;;;;;5.03;4.18;;;29.70;50.60;;;;;;6272071;22;20023;-92
2021/07/03 09:43:54;;;;;;;5.50;4.40;;;30.50;50.90;;;;;;6275947;22;20051;-92
2021/07/03 09:46:52;;;;;;;5.53;4.30;;;30.70;47.70;;;;;;6276046;22;20096;-92
2021/07/03 09:49:40;;;;;;;4.90;4.43;;;30.20;46.10;;;;;;6275668;22;20023;-93
2021/07/03 09:52:30;;;;;;;4.70;3.95;;;29.70;48.60;;;;;;6272949;22;20095;-93
2021/07/03 09:55:18;;;;;;;9.30;4.30;;;29.60;53.70;;;;;;6275398;22;20038;-93
2021/07/03 09:58:08;;;;;;;3.85;3.50;;;30.40;48.50;;;;;;6275061;22;20081;-92
2021/07/03 10:00:55;;;;;;;4.40;4.00;;;30.10;44.60;;;;;;6274415;22;20020;-92
2021/07/03 10:03:43;;;;;;;4.38;3.88;;;29.00;45.50;;;;;;6275426;22;20043;-92
2021/07/03 10:06:47;;;;;;;3.92;3.63;;;28.80;46.00;;;;;;6278339;22;20034;-93
2021/07/03 10:09:49;;;;;;;3.85;3.50;;;29.60;45.60;;;;;;6275202;22;20586;-93
2021/07/03 10:12:57;;;;;;;4.55;4.10;;;30.60;46.90;;;;;;6278645;22;20031;-93
2021/07/03 10:15:47;;;;;;;5.43;4.03;;;30.60;43.50;;;;;;6276348;22;20091;-92
2021/07/03 10:18:36;;;;;;;5.32;3.70;;;30.80;46.50;;;;;;6275201;22;20153;-92
2021/07/03 10:21:26;;;;;;;4.00;3.63;;;30.60;43.90;;;;;;6272694;22;20024;-94
2021/07/03 10:24:23;;;;;;;5.03;4.03;;;30.80;43.10;;;;;;6272154;22;20024;-89
2021/07/03 10:27:37;;;;;;;5.18;4.07;;;31.10;43.60;;;;;;6275799;22;20442;-93
2021/07/03 10:30:32;;;;;;;4.18;3.63;;;31.60;45.20;;;;;;6272941;22;20050;-93
2021/07/03 10:33:23;;;;;;;4.35;3.53;;;32.20;45.90;;;;;;6279527;22;20036;-93
2021/07/03 10:36:43;;;;;;;4.22;3.72;;;32.40;42.70;;;;;;6281865;22;20024;-94
2021/07/03 10:39:32;;;;;;;4.10;3.78;;;31.10;41.80;;;;;;6285288;22;20079;-93
2021/07/03 10:42:28;;;;;;;7.20;4.13;;;30.90;42.70;;;;;;6285347;22;20027;-91
2021/07/03 10:45:23;;;;;;;4.30;3.70;;;30.90;47.30;;;;;;6272693;22;20015;-92
2021/07/03 10:48:16;;;;;;;4.13;3.70;;;31.80;41.30;;;;;;6274904;22;20081;-92
2021/07/03 10:51:14;;;;;;;3.47;3.17;;;31.60;42.00;;;;;;6281450;22;20023;-91
2021/07/03 10:54:19;;;;;;;3.53;3.17;;;32.70;40.70;;;;;;6274128;22;20038;-91
2021/07/03 10:57:12;;;;;;;4.50;3.65;;;33.80;42.90;;;;;;6276225;22;20027;-93
2021/07/03 11:00:01;;;;;;;4.28;3.60;;;33.90;40.10;;;;;;6277728;22;20023;-92
2021/07/03 11:02:48;;;;;;;3.88;3.50;;;34.10;39.20;;;;;;6272079;22;20035;-92
2021/07/03 11:05:36;;;;;;;3.72;3.20;;;33.80;40.60;;;;;;6274821;22;20020;-91
2021/07/03 11:08:44;;;;;;;6.18;3.80;;;33.40;40.50;;;;;;6273586;22;20099;-92
2021/07/03 11:11:39;;;;;;;4.72;4.00;;;32.90;41.00;;;;;;6279420;22;20367;-91
2021/07/03 11:14:27;;;;;;;3.53;3.22;;;33.00;39.40;;;;;;6274748;22;20043;-91
2021/07/03 11:17:16;;;;;;;3.67;3.38;;;32.80;38.60;;;;;;6275407;22;20077;-91
2021/07/03 11:20:09;;;;;;;3.78;3.38;;;32.80;41.40;;;;;;6271005;22;20042;-92
2021/07/03 11:22:59;;;;;;;4.25;3.53;;;32.90;42.00;;;;;;6254131;22;20028;-93
2021/07/03 11:25:51;;;;;;;4.25;3.20;;;33.30;42.50;;;;;;6271253;22;20126;-91
2021/07/03 11:28:39;;;;;;;5.65;3.78;;;33.10;40.80;;;;;;6272660;22;20059;-92
2021/07/03 11:31:29;;;;;;;3.60;3.30;;;33.70;40.30;;;;;;6273306;22;20055;-91
2021/07/03 11:34:19;;;;;;;5.05;3.10;;;34.10;39.10;;;;;;6271706;22;20124;-92
2021/07/03 11:37:06;;;;;;;3.47;2.97;;;33.70;37.30;;;;;;6273045;22;20047;-92
2021/07/03 11:39:55;;;;;;;3.88;3.28;;;33.90;36.90;;;;;;6274122;22;20323;-93
2021/07/03 11:42:45;;;;;;;4.20;3.55;;;34.00;37.50;;;;;;6275865;22;20062;-91
2021/07/03 11:45:35;;;;;;;3.40;3.10;;;33.80;38.40;;;;;;6273794;22;20111;-91
2021/07/03 11:48:24;;;;;;;5.03;3.05;;;33.40;40.00;;;;;;6276062;22;20116;-94
2021/07/03 11:51:13;;;;;;;4.30;3.35;;;33.00;37.40;;;;;;6275204;22;20084;-92
2021/07/03 11:54:03;;;;;;;6.25;3.22;;;33.10;37.80;;;;;;6273615;22;20149;-92
2021/07/03 11:56:58;;;;;;;3.65;3.35;;;33.80;38.00;;;;;;6273121;22;20150;-94
2021/07/03 11:59:47;;;;;;;5.15;2.83;;;34.10;38.30;;;;;;6270245;22;20465;-91
2021/07/03 12:02:36;;;;;;;3.65;3.25;;;34.70;37.60;;;;;;6272856;22;20096;-91
2021/07/03 12:05:29;;;;;;;4.82;3.50;;;34.40;36.90;;;;;;6274221;22;20019;-93
2021/07/03 12:08:17;;;;;;;4.25;3.85;;;32.50;37.40;;;;;;6275841;22;20137;-92
2021/07/03 12:11:09;;;;;;;3.40;2.90;;;32.10;42.70;;;;;;6270836;22;20307;-89
2021/07/03 12:13:56;;;;;;;4.75;2.85;;;32.90;40.10;;;;;;6271228;22;20058;-92
2021/07/03 12:16:54;;;;;;;3.67;2.85;;;33.70;35.70;;;;;;6272571;22;20059;-92
2021/07/03 12:19:48;;;;;;;4.13;3.72;;;34.30;37.90;;;;;;6273289;22;20412;-92
2021/07/03 12:22:39;;;;;;;3.67;2.92;;;34.70;32.00;;;;;;6273230;22;20020;-91
2021/07/03 12:25:28;;;;;;;3.03;2.55;;;33.50;36.30;;;;;;6274728;22;20073;-91
2021/07/03 12:28:16;;;;;;;2.80;2.60;;;33.80;33.50;;;;;;6277646;22;20163;-91
2021/07/03 12:31:08;;;;;;;2.88;2.20;;;34.10;34.20;;;;;;6271353;22;20085;-91
2021/07/03 12:34:01;;;;;;;2.78;2.58;;;34.50;34.20;;;;;;6274132;22;20081;-91
2021/07/03 12:36:51;;;;;;;3.05;2.72;;;35.10;35.00;;;;;;6275919;22;20031;-91
2021/07/03 12:39:47;;;;;;;3.88;2.50;;;35.30;34.40;;;;;;6254989;22;20081;-91
2021/07/03 12:42:35;;;;;;;2.80;2.60;;;35.50;34.40;;;;;;6275012;22;20098;-91
2021/07/03 12:45:22;;;;;;;3.05;2.75;;;36.10;30.40;;;;;;6279134;22;20116;-91
2021/07/03 12:48:15;;;;;;;2.92;2.63;;;35.50;29.90;;;;;;6277391;22;20410;-92
2021/07/03 12:51:05;;;;;;;3.47;2.80;;;33.70;32.30;;;;;;6276538;22;20023;-90
2021/07/03 12:53:58;;;;;;;4.15;2.88;;;33.20;34.10;;;;;;6279159;22;20032;-91
2021/07/03 12:56:54;;;;;;;3.70;3.28;;;33.40;32.90;;;;;;6279985;22;20028;-93
2021/07/03 12:59:43;;;;;;;3.97;2.70;;;33.80;34.30;;;;;;6279039;22;20024;-93
2021/07/03 13:02:37;;;;;;;3.03;2.80;;;34.80;30.50;;;;;;6273294;22;20031;-93
2021/07/03 13:05:27;;;;;;;4.10;2.60;;;35.50;30.20;;;;;;6277423;22;20024;-95
2021/07/03 13:08:15;;;;;;;3.60;3.08;;;36.20;32.20;;;;;;6277421;22;20039;-89
2021/07/03 13:11:03;;;;;;;5.45;2.90;;;36.50;29.70;;;;;;6271867;22;20073;-91
2021/07/03 13:13:51;;;;;;;5.32;2.97;;;35.20;31.90;;;;;;6276087;22;20027;-90
2021/07/03 13:16:38;;;;;;;2.78;2.50;;;35.40;31.50;;;;;;6276580;22;20027;-92
2021/07/03 13:19:25;;;;;;;2.60;2.40;;;36.00;29.10;;;;;;6255017;22;20028;-92
2021/07/03 13:22:13;;;;;;;4.13;2.55;;;36.30;32.00;;;;;;6272666;22;20035;-93
2021/07/03 13:25:00;;;;;;;3.53;2.40;;;36.70;31.10;;;;;;6278516;22;20019;-91
2021/07/03 13:27:47;;;;;;;2.22;2.10;;;37.50;31.00;;;;;;6257771;22;20102;-93
2021/07/03 13:30:34;;;;;;;3.90;2.30;;;37.80;26.80;;;;;;6279535;22;20105;-94
2021/07/03 13:33:22;;;;;;;2.28;2.08;;;36.90;27.80;;;;;;6256189;22;20301;-92
2021/07/03 13:36:12;;;;;;;2.95;2.67;;;36.00;28.60;;;;;;6279253;22;20031;-92
2021/07/03 13:39:02;;;;;;;2.70;2.50;;;36.20;28.60;;;;;;6275897;22;20039;-94
2021/07/03 13:41:52;;;;;;;2.60;2.40;;;35.80;29.50;;;;;;6279405;22;20020;-91
2021/07/03 13:44:39;;;;;;;3.97;2.55;;;36.00;29.30;;;;;;6273470;22;20020;-92
2021/07/03 13:47:27;;;;;;;3.00;2.42;;;35.70;29.50;;;;;;6276803;22;20395;-92
2021/07/03 13:50:16;;;;;;;2.65;2.30;;;35.60;29.10;;;;;;6277927;22;20105;-93
2021/07/03 13:53:04;;;;;;;3.00;2.30;;;35.40;29.60;;;;;;6272762;22;20120;-91
2021/07/03 13:55:51;;;;;;;3.75;2.38;;;35.50;30.70;;;;;;6273911;22;20050;-93
2021/07/03 13:58:43;;;;;;;2.88;2.50;;;36.00;29.40;;;;;;6276385;22;20020;-94
2021/07/03 14:01:36;;;;;;;3.03;2.75;;;36.10;28.30;;;;;;6257366;22;20023;-90
2021/07/03 14:04:32;;;;;;;4.63;2.47;;;35.20;28.90;;;;;;6279543;22;20028;-92
2021/07/03 14:07:19;;;;;;;3.40;2.72;;;34.70;30.00;;;;;;6275576;22;20031;-92
2021/07/03 14:10:08;;;;;;;2.75;2.55;;;34.50;30.00;;;;;;6280863;22;20024;-92
2021/07/03 14:12:56;;;;;;;3.30;2.60;;;34.60;31.10;;;;;;6274092;22;20020;-93
2021/07/03 14:15:47;;;;;;;2.53;2.33;;;34.30;29.90;;;;;;6275995;22;20107;-92
2021/07/03 14:18:38;;;;;;;3.78;2.63;;;34.00;30.80;;;;;;6276451;22;20019;-92
2021/07/03 14:21:25;;;;;;;3.50;2.53;;;34.30;36.50;;;;;;6274074;22;20089;-91
2021/07/03 14:24:14;;;;;;;2.50;2.30;;;34.80;34.00;;;;;;6280653;22;20024;-90
2021/07/03 14:27:04;;;;;;;3.05;2.53;;;34.80;29.70;;;;;;6276151;22;20019;-92
2021/07/03 14:29:52;;;;;;;2.92;2.35;;;34.40;32.70;;;;;;6277163;22;20020;-93
2021/07/03 14:32:40;;;;;;;2.63;2.30;;;34.80;35.40;;;;;;6273535;22;20031;-92
2021/07/03 14:35:27;;;;;;;4.30;3.30;;;34.70;33.70;;;;;;6278990;22;20027;-93
2021/07/03 14:38:15;;;;;;;7.25;2.92;;;33.80;31.50;;;;;;6274604;22;20027;-91
2021/07/03 14:41:02;;;;;;;2.80;2.50;;;32.70;33.60;;;;;;6285445;22;20362;-92
2021/07/03 14:43:49;;;;;;;2.67;2.47;;;31.50;38.30;;;;;;6273784;22;20035;-92
2021/07/03 14:46:40;;;;;;;3.42;2.75;;;30.80;36.40;;;;;;6276696;22;20153;-89
2021/07/03 14:49:28;;;;;;;3.55;2.90;;;30.10;41.90;;;;;;6276849;22;20031;-89
2021/07/03 14:52:18;;;;;;;3.10;2.80;;;29.50;42.10;;;;;;6275443;22;20622;-88
2021/07/03 14:55:08;;;;;;;3.28;2.97;;;28.60;45.80;;;;;;6272456;22;20093;-90
2021/07/03 14:57:56;;;;;;;3.17;2.88;;;27.80;44.90;;;;;;6271317;22;20031;-89
2021/07/03 15:00:43;;;;;;;3.63;3.33;;;27.40;47.20;;;;;;6270406;22;20123;-92
2021/07/03 15:03:30;;;;;;;3.60;3.20;;;27.20;48.60;;;;;;6272115;22;20080;-92
2021/07/03 15:06:17;;;;;;;7.07;3.60;;;26.70;49.00;;;;;;6273575;22;20048;-91
2021/07/03 15:09:08;;;;;;;4.75;2.72;;;26.30;52.80;;;;;;6272898;22;20115;-90
2021/07/03 15:11:55;;;;;;;4.30;3.20;;;25.90;52.10;;;;;;6273371;22;20077;-92
2021/07/03 15:14:42;;;;;;;5.35;3.50;;;25.90;53.80;;;;;;6272070;22;20112;-89
2021/07/03 15:17:30;;;;;;;4.07;3.35;;;25.90;55.50;;;;;;6274832;22;20059;-88
2021/07/03 15:20:22;;;;;;;7.03;3.80;;;25.80;53.90;;;;;;6271268;22;20117;-90
2021/07/03 15:23:09;;;;;;;3.85;3.25;;;25.60;52.80;;;;;;6270270;22;20028;-91
2021/07/03 15:25:57;;;;;;;7.55;3.80;;;25.50;53.70;;;;;;6270124;22;20023;-92
2021/07/03 15:28:47;;;;;;;4.72;3.90;;;25.40;54.80;;;;;;6253017;22;20117;-92
2021/07/03 15:31:35;;;;;;;5.32;4.00;;;25.30;54.10;;;;;;6273681;22;20123;-90
2021/07/03 15:34:24;;;;;;;5.07;3.88;;;25.00;56.00;;;;;;6271572;22;20117;-91
2021/07/03 15:37:12;;;;;;;4.93;4.07;;;25.10;55.00;;;;;;6271003;22;20051;-91
2021/07/03 15:40:02;;;;;;;4.75;3.72;;;24.80;56.60;;;;;;6271406;22;20453;-91
2021/07/03 15:42:51;;;;;;;4.32;3.50;;;24.80;55.80;;;;;;6275750;22;20374;-90
2021/07/03 15:45:39;;;;;;;4.80;4.35;;;24.80;55.00;;;;;;6270454;22;20058;-91
2021/07/03 15:48:26;;;;;;;5.30;4.03;;;25.00;54.60;;;;;;6271071;22;20020;-90
2021/07/03 15:51:13;;;;;;;5.57;3.80;;;25.00;55.70;;;;;;6273728;22;20024;-90
2021/07/03 15:54:00;;;;;;;4.45;3.70;;;25.00;55.20;;;;;;6270531;22;20112;-89
2021/07/03 15:56:50;;;;;;;4.20;3.80;;;25.10;54.20;;;;;;6273508;22;20054;-91
2021/07/03 15:59:38;;;;;;;4.07;3.63;;;25.10;54.90;;;;;;6250460;22;20093;-89
2021/07/03 16:02:25;;;;;;;4.20;3.80;;;25.20;54.20;;;;;;6270635;22;20125;-89
2021/07/03 16:05:14;;;;;;;7.40;4.32;;;25.30;54.40;;;;;;6274177;22;20023;-90
2021/07/03 16:08:01;;;;;;;4.90;4.20;;;25.10;54.80;;;;;;6271205;22;20367;-88
2021/07/03 16:10:48;;;;;;;7.32;4.05;;;25.10;56.50;;;;;;6274264;22;20048;-88
2021/07/03 16:13:36;;;;;;;3.78;3.47;;;25.10;56.50;;;;;;6274295;22;20020;-88
2021/07/03 16:16:23;;;;;;;5.50;4.20;;;25.00;56.90;;;;;;6270109;22;20455;-90
2021/07/03 16:19:10;;;;;;;7.38;4.30;;;24.90;57.60;;;;;;6270744;22;20039;-90
2021/07/03 16:21:58;;;;;;;4.38;3.97;;;25.00;58.20;;;;;;6270580;22;20024;-91
2021/07/03 16:24:45;;;;;;;6.07;4.10;;;25.00;56.00;;;;;;6270856;22;20028;-89
2021/07/03 16:27:33;;;;;;;4.05;3.75;;;25.00;56.80;;;;;;6271433;22;20603;-90
2021/07/03 16:30:21;;;;;;;5.57;4.32;;;24.90;59.30;;;;;;6270952;22;20023;-90
2021/07/03 16:33:11;;;;;;;5.50;3.95;;;24.80;59.30;;;;;;6273962;22;20027;-90
2021/07/03 16:35:59;;;;;;;5.35;3.80;;;24.80;58.80;;;;;;6270967;22;20295;-90
2021/07/03 16:38:46;;;;;;;5.28;4.32;;;24.80;59.10;;;;;;6272295;22;20036;-89
2021/07/03 16:41:36;;;;;;;7.25;4.60;;;24.60;59.50;;;;;;6270341;22;20027;-89
2021/07/03 16:44:24;;;;;;;6.55;4.20;;;24.40;59.90;;;;;;6269528;22;20423;-90
2021/07/03 16:47:11;;;;;;;5.35;4.00;;;24.30;60.30;;;;;;6274121;22;20367;-88
2021/07/03 16:50:01;;;;;;;4.90;4.20;;;24.00;60.10;;;;;;6270767;22;20058;-92
2021/07/03 16:52:48;;;;;;;5.53;4.60;;;23.80;63.40;;;;;;6269028;22;20023;-89
2021/07/03 16:55:36;;;;;;;6.72;4.07;;;23.60;61.90;;;;;;6270195;22;20078;-90
2021/07/03 16:58:25;;;;;;;7.25;4.68;;;23.70;62.50;;;;;;6273426;22;20024;-91
2021/07/03 17:01:12;;;;;;;5.82;4.70;;;23.60;60.90;;;;;;6274360;22;20142;-90
2021/07/03 17:04:02;;;;;;;5.07;4.57;;;23.60;62.80;;;;;;6253153;22;20051;-92
2021/07/03 17:06:52;;;;;;;5.50;4.30;;;23.50;61.30;;;;;;6277187;22;20450;-92
2021/07/03 17:09:41;;;;;;;5.00;4.30;;;23.50;65.80;;;;;;6281425;22;20021;-90
2021/07/03 17:12:28;;;;;;;7.28;4.97;;;23.30;63.00;;;;;;6280926;22;20027;-90
2021/07/03 17:15:16;;;;;;;6.93;5.07;;;23.30;62.40;;;;;;6274403;22;20378;-92
2021/07/03 17:18:04;;;;;;;5.55;4.47;;;23.20;62.60;;;;;;6273712;22;20050;-93
2021/07/03 17:20:51;;;;;;;12.10;5.88;;;23.10;62.70;;;;;;6272598;22;20050;-92
2021/07/03 17:23:38;;;;;;;7.13;5.57;;;23.00;63.00;;;;;;6276850;22;20028;-90
2021/07/03 17:26:26;;;;;;;9.88;6.20;;;23.00;63.30;;;;;;6273913;22;20040;-91
2021/07/03 17:29:16;;;;;;;15.23;7.30;;;23.00;68.00;;;;;;6274526;22;20038;-90
2021/07/03 17:32:03;;;;;;;7.95;6.22;;;22.80;69.30;;;;;;6271639;22;20027;-89
2021/07/03 17:34:51;;;;;;;9.18;6.13;;;22.40;77.10;;;;;;6251347;22;20058;-92
2021/07/03 17:37:41;;;;;;;8.68;7.18;;;21.60;89.50;;;;;;6271092;22;20166;-91
2021/07/03 17:40:28;;;;;;;9.52;7.45;;;20.60;99.90;;;;;;6273645;22;20108;-89
2021/07/03 17:43:15;;;;;;;13.70;8.43;;;19.50;99.90;;;;;;6253530;22;20569;-90
2021/07/03 17:46:03;;;;;;;15.80;9.60;;;18.60;99.90;;;;;;6276603;22;20023;-91
2021/07/03 17:48:50;;;;;;;13.57;9.57;;;18.20;99.90;;;;;;6275898;22;20023;-93
2021/07/03 17:51:38;;;;;;;13.20;10.75;;;17.90;99.90;;;;;;6275426;22;20390;-90
2021/07/03 17:54:25;;;;;;;13.30;10.32;;;17.80;99.90;;;;;;6251609;22;20085;-90
2021/07/03 17:57:13;;;;;;;11.52;10.25;;;17.70;99.90;;;;;;6273886;22;20039;-88
2021/07/03 18:00:00;;;;;;;13.73;10.40;;;17.60;99.90;;;;;;6273090;22;20031;-89
2021/07/03 18:02:48;;;;;;;12.48;10.45;;;17.60;99.90;;;;;;6274890;22;20039;-89
2021/07/03 18:05:35;;;;;;;13.07;10.23;;;17.70;99.90;;;;;;6273325;22;20032;-90
2021/07/03 18:08:23;;;;;;;11.90;9.82;;;17.60;99.90;;;;;;6252672;22;20054;-91
2021/07/03 18:11:10;;;;;;;13.70;10.63;;;17.50;99.90;;;;;;6253377;22;20102;-90
2021/07/03 18:13:58;;;;;;;15.95;11.25;;;17.50;99.90;;;;;;6276676;22;20035;-90
2021/07/03 18:16:45;;;;;;;13.82;11.10;;;17.50;99.90;;;;;;6275272;22;20039;-91
2021/07/03 18:19:36;;;;;;;17.35;12.63;;;17.40;99.90;;;;;;6276942;22;20020;-90
2021/07/03 18:22:26;;;;;;;13.93;11.30;;;17.40;99.90;;;;;;6280345;22;20019;-92
2021/07/03 18:25:14;;;;;;;18.08;13.40;;;17.40;99.90;;;;;;6282395;22;20034;-89
2021/07/03 18:28:04;;;;;;;14.65;11.60;;;17.40;99.90;;;;;;6274009;22;20030;-91
2021/07/03 18:30:54;;;;;;;16.60;12.18;;;17.40;99.90;;;;;;6273474;22;20032;-90
2021/07/03 18:33:44;;;;;;;15.05;11.73;;;17.40;99.90;;;;;;6274538;22;20028;-91
2021/07/03 18:36:34;;;;;;;18.20;13.48;;;17.30;99.90;;;;;;6274530;22;20024;-91
2021/07/03 18:39:21;;;;;;;20.42;14.40;;;17.30;99.90;;;;;;6271386;22;20031;-91
2021/07/03 18:42:09;;;;;;;16.17;12.10;;;17.20;99.90;;;;;;6271968;22;20327;-91
2021/07/03 18:44:56;;;;;;;23.02;15.55;;;17.10;99.90;;;;;;6278526;22;20634;-90
2021/07/03 18:47:48;;;;;;;21.60;14.88;;;17.10;99.90;;;;;;6272632;22;20046;-89
2021/07/03 18:50:37;;;;;;;19.55;15.15;;;17.10;99.90;;;;;;6251242;22;20196;-90
2021/07/03 18:53:25;;;;;;;23.50;15.93;;;17.10;99.90;;;;;;6273780;22;20051;-89
2021/07/03 18:56:14;;;;;;;21.48;14.70;;;17.10;99.90;;;;;;6270633;22;20584;-89
2021/07/03 18:59:02;;;;;;;20.83;14.57;;;17.00;99.90;;;;;;6272643;22;20071;-88
2021/07/03 19:01:50;;;;;;;24.60;15.05;;;16.90;99.90;;;;;;6272845;22;20023;-88
2021/07/03 19:04:37;;;;;;;23.65;16.95;;;16.90;99.90;;;;;;6273788;22;20444;-89
2021/07/03 19:07:27;;;;;;;22.73;15.95;;;16.90;99.90;;;;;;6253755;22;20019;-88
2021/07/03 19:10:14;;;;;;;25.35;16.75;;;16.80;99.90;;;;;;6273447;22;20027;-90
2021/07/03 19:13:02;;;;;;;20.95;16.42;;;16.80;99.90;;;;;;6276124;22;20024;-90
2021/07/03 19:15:49;;;;;;;23.13;15.20;;;16.70;99.90;;;;;;6275938;22;20373;-89
2021/07/03 19:18:37;;;;;;;19.65;15.00;;;16.70;99.90;;;;;;6271106;22;20051;-90
2021/07/03 19:21:24;;;;;;;23.73;17.10;;;16.70;99.90;;;;;;6275606;22;20051;-91
2021/07/03 19:24:11;;;;;;;28.42;16.20;;;16.70;99.90;;;;;;6272387;22;20023;-90